sensor_id;sensor_type;location;lat;lon;timestamp;temperature;humidity
48007;DHT22;33771;48.180;11.400;2023-10-13T00:02:03;17.10;99.90
48007;DHT22;33771;48.180;11.400;2023-10-13T00:04:31;17.00;99.90
48007;DHT22;33771;48.180;11.400;2023-10-13T00:07:03;17.10;99.90
48007;DHT22;33771;48.180;11.400;2023-10-13T00:09:30;17.00;99.90
48007;DHT22;33771;48.180;11.400;2023-10-13T00:12:02;17.00;99.90
48007;DHT22;33771;48.180;11.400;2023-10-13T00:14:40;17.00;99.90
48007;DHT22;33771;48.180;11.400;2023-10-13T00:17:07;17.00;99.90
48007;DHT22;33771;48.180;11.400;2023-10-13T00:19:38;17.00;99.90
48007;DHT22;33771;48.180;11.400;2023-10-13T00:22:15;16.90;99.90
48007;DHT22;33771;48.180;11.400;2023-10-13T00:24:45;16.90;99.90
48007;DHT22;33771;48.180;11.400;2023-10-13T00:27:21;16.90;99.90
48007;DHT22;33771;48.180;11.400;2023-10-13T00:30:03;16.90;99.90
48007;DHT22;33771;48.180;11.400;2023-10-13T00:32:53;16.90;99.90
48007;DHT22;33771;48.180;11.400;2023-10-13T00:35:23;16.90;99.90
48007;DHT22;33771;48.180;11.400;2023-10-13T00:38:04;16.90;99.90
48007;DHT22;33771;48.180;11.400;2023-10-13T00:40:39;16.90;99.90
48007;DHT22;33771;48.180;11.400;2023-10-13T00:43:05;16.90;99.90
48007;DHT22;33771;48.180;11.400;2023-10-13T00:45:56;17.00;99.90
48007;DHT22;33771;48.180;11.400;2023-10-13T00:48:27;16.90;99.90
48007;DHT22;33771;48.180;11.400;2023-10-13T00:51:02;17.00;99.90
48007;DHT22;33771;48.180;11.400;2023-10-13T00:53:29;17.00;99.90
48007;DHT22;33771;48.180;11.400;2023-10-13T00:56:00;17.00;99.90
48007;DHT22;33771;48.180;11.400;2023-10-13T00:58:35;17.00;99.90
48007;DHT22;33771;48.180;11.400;2023-10-13T01:01:03;17.00;99.90
48007;DHT22;33771;48.180;11.400;2023-10-13T01:04:02;16.90;99.90
48007;DHT22;33771;48.180;11.400;2023-10-13T01:06:30;17.00;99.90
48007;DHT22;33771;48.180;11.400;2023-10-13T01:09:03;16.90;99.90
48007;DHT22;33771;48.180;11.400;2023-10-13T01:11:48;16.80;99.90
48007;DHT22;33771;48.180;11.400;2023-10-13T01:14:18;16.80;99.90
48007;DHT22;33771;48.180;11.400;2023-10-13T01:16:45;16.70;99.90
48007;DHT22;33771;48.180;11.400;2023-10-13T01:19:12;16.70;99.90
48007;DHT22;33771;48.180;11.400;2023-10-13T01:21:39;16.60;99.90
48007;DHT22;33771;48.180;11.400;2023-10-13T01:24:07;16.50;99.90
48007;DHT22;33771;48.180;11.400;2023-10-13T01:26:34;16.50;99.90
48007;DHT22;33771;48.180;11.400;2023-10-13T01:29:05;16.40;99.90
48007;DHT22;33771;48.180;11.400;2023-10-13T01:31:39;16.40;99.90
48007;DHT22;33771;48.180;11.400;2023-10-13T01:34:14;16.30;99.90
48007;DHT22;33771;48.180;11.400;2023-10-13T01:36:45;16.30;99.90
48007;DHT22;33771;48.180;11.400;2023-10-13T01:39:11;16.20;99.90
48007;DHT22;33771;48.180;11.400;2023-10-13T01:41:42;16.20;99.90
48007;DHT22;33771;48.180;11.400;2023-10-13T01:44:08;16.10;99.90
48007;DHT22;33771;48.180;11.400;2023-10-13T01:46:37;16.10;99.90
48007;DHT22;33771;48.180;11.400;2023-10-13T01:49:03;16.00;99.90
48007;DHT22;33771;48.180;11.400;2023-10-13T01:51:28;16.00;99.90
48007;DHT22;33771;48.180;11.400;2023-10-13T01:53:54;16.00;99.90
48007;DHT22;33771;48.180;11.400;2023-10-13T01:56:23;15.90;99.90
48007;DHT22;33771;48.180;11.400;2023-10-13T01:58:50;15.90;99.90
48007;DHT22;33771;48.180;11.400;2023-10-13T02:01:15;15.90;99.90
48007;DHT22;33771;48.180;11.400;2023-10-13T02:03:55;15.90;99.90
48007;DHT22;33771;48.180;11.400;2023-10-13T02:06:33;15.90;99.90
48007;DHT22;33771;48.180;11.400;2023-10-13T02:09:00;15.80;99.90
48007;DHT22;33771;48.180;11.400;2023-10-13T02:11:39;15.80;99.90
48007;DHT22;33771;48.180;11.400;2023-10-13T02:14:05;15.80;99.90
48007;DHT22;33771;48.180;11.400;2023-10-13T02:16:31;15.70;99.90
48007;DHT22;33771;48.180;11.400;2023-10-13T02:18:57;15.70;99.90
48007;DHT22;33771;48.180;11.400;2023-10-13T02:21:30;15.70;99.90
48007;DHT22;33771;48.180;11.400;2023-10-13T02:24:00;15.60;99.90
48007;DHT22;33771;48.180;11.400;2023-10-13T02:26:26;15.60;99.90
48007;DHT22;33771;48.180;11.400;2023-10-13T02:29:04;15.60;99.90
48007;DHT22;33771;48.180;11.400;2023-10-13T02:31:35;15.60;99.90
48007;DHT22;33771;48.180;11.400;2023-10-13T02:34:01;15.50;99.90
48007;DHT22;33771;48.180;11.400;2023-10-13T02:36:32;15.50;99.90
48007;DHT22;33771;48.180;11.400;2023-10-13T02:39:12;15.40;99.90
48007;DHT22;33771;48.180;11.400;2023-10-13T02:41:39;15.30;99.90
48007;DHT22;33771;48.180;11.400;2023-10-13T02:44:06;15.30;99.90
48007;DHT22;33771;48.180;11.400;2023-10-13T02:46:33;15.20;99.90
48007;DHT22;33771;48.180;11.400;2023-10-13T02:49:02;15.10;99.90
48007;DHT22;33771;48.180;11.400;2023-10-13T02:51:35;15.10;99.90
48007;DHT22;33771;48.180;11.400;2023-10-13T02:54:01;15.00;99.90
48007;DHT22;33771;48.180;11.400;2023-10-13T02:56:40;14.90;99.90
48007;DHT22;33771;48.180;11.400;2023-10-13T02:59:28;14.90;99.90
48007;DHT22;33771;48.180;11.400;2023-10-13T03:02:04;14.80;99.90
48007;DHT22;33771;48.180;11.400;2023-10-13T03:04:46;14.70;99.90
48007;DHT22;33771;48.180;11.400;2023-10-13T03:07:12;14.70;99.90
48007;DHT22;33771;48.180;11.400;2023-10-13T03:09:42;14.70;99.90
48007;DHT22;33771;48.180;11.400;2023-10-13T03:12:16;14.60;99.90
48007;DHT22;33771;48.180;11.400;2023-10-13T03:14:42;14.60;99.90
48007;DHT22;33771;48.180;11.400;2023-10-13T03:17:13;14.50;99.90
48007;DHT22;33771;48.180;11.400;2023-10-13T03:19:44;14.40;99.90
48007;DHT22;33771;48.180;11.400;2023-10-13T03:22:16;14.40;99.90
48007;DHT22;33771;48.180;11.400;2023-10-13T03:24:45;14.30;99.90
48007;DHT22;33771;48.180;11.400;2023-10-13T03:27:14;14.20;99.90
48007;DHT22;33771;48.180;11.400;2023-10-13T03:29:44;14.20;99.90
48007;DHT22;33771;48.180;11.400;2023-10-13T03:32:14;14.20;99.90
48007;DHT22;33771;48.180;11.400;2023-10-13T03:34:43;14.10;99.90
48007;DHT22;33771;48.180;11.400;2023-10-13T03:37:27;14.10;99.90
48007;DHT22;33771;48.180;11.400;2023-10-13T03:40:06;14.10;99.90
48007;DHT22;33771;48.180;11.400;2023-10-13T03:43:01;14.00;99.90
48007;DHT22;33771;48.180;11.400;2023-10-13T03:45:32;14.00;99.90
48007;DHT22;33771;48.180;11.400;2023-10-13T03:48:08;13.90;99.90
48007;DHT22;33771;48.180;11.400;2023-10-13T03:50:46;13.90;99.90
48007;DHT22;33771;48.180;11.400;2023-10-13T03:53:13;13.90;99.90
48007;DHT22;33771;48.180;11.400;2023-10-13T03:55:40;13.80;99.90
48007;DHT22;33771;48.180;11.400;2023-10-13T03:58:09;13.80;99.90
48007;DHT22;33771;48.180;11.400;2023-10-13T04:00:36;13.80;99.90
48007;DHT22;33771;48.180;11.400;2023-10-13T04:03:02;13.70;99.90
48007;DHT22;33771;48.180;11.400;2023-10-13T04:05:36;13.70;99.90
48007;DHT22;33771;48.180;11.400;2023-10-13T04:08:11;13.70;99.90
48007;DHT22;33771;48.180;11.400;2023-10-13T04:11:03;13.60;99.90
48007;DHT22;33771;48.180;11.400;2023-10-13T04:14:06;13.60;99.90
48007;DHT22;33771;48.180;11.400;2023-10-13T04:17:11;13.50;99.90
48007;DHT22;33771;48.180;11.400;2023-10-13T04:19:42;13.50;99.90
48007;DHT22;33771;48.180;11.400;2023-10-13T04:22:26;13.40;99.90
48007;DHT22;33771;48.180;11.400;2023-10-13T04:25:22;13.40;99.90
48007;DHT22;33771;48.180;11.400;2023-10-13T04:28:01;13.40;99.90
48007;DHT22;33771;48.180;11.400;2023-10-13T04:30:50;13.30;99.90
48007;DHT22;33771;48.180;11.400;2023-10-13T04:33:22;13.30;99.90
48007;DHT22;33771;48.180;11.400;2023-10-13T04:36:13;13.30;99.90
48007;DHT22;33771;48.180;11.400;2023-10-13T04:38:49;13.30;99.90
48007;DHT22;33771;48.180;11.400;2023-10-13T04:41:24;13.30;99.90
48007;DHT22;33771;48.180;11.400;2023-10-13T04:43:50;13.20;99.90
48007;DHT22;33771;48.180;11.400;2023-10-13T04:46:23;13.20;99.90
48007;DHT22;33771;48.180;11.400;2023-10-13T04:49:04;13.20;99.90
48007;DHT22;33771;48.180;11.400;2023-10-13T04:51:36;13.20;99.90
48007;DHT22;33771;48.180;11.400;2023-10-13T04:54:22;13.20;99.90
48007;DHT22;33771;48.180;11.400;2023-10-13T04:56:52;13.10;99.90
48007;DHT22;33771;48.180;11.400;2023-10-13T04:59:36;13.10;99.90
48007;DHT22;33771;48.180;11.400;2023-10-13T05:02:03;13.10;99.90
48007;DHT22;33771;48.180;11.400;2023-10-13T05:04:47;13.10;99.90
48007;DHT22;33771;48.180;11.400;2023-10-13T05:07:32;13.10;99.90
48007;DHT22;33771;48.180;11.400;2023-10-13T05:10:17;13.10;99.90
48007;DHT22;33771;48.180;11.400;2023-10-13T05:13:01;13.00;99.90
48007;DHT22;33771;48.180;11.400;2023-10-13T05:15:49;13.00;99.90
48007;DHT22;33771;48.180;11.400;2023-10-13T05:18:34;13.00;99.90
48007;DHT22;33771;48.180;11.400;2023-10-13T05:21:18;13.00;99.90
48007;DHT22;33771;48.180;11.400;2023-10-13T05:24:03;12.90;99.90
48007;DHT22;33771;48.180;11.400;2023-10-13T05:26:48;12.90;99.90
48007;DHT22;33771;48.180;11.400;2023-10-13T05:29:32;12.90;99.90
48007;DHT22;33771;48.180;11.400;2023-10-13T05:32:16;12.90;99.90
48007;DHT22;33771;48.180;11.400;2023-10-13T05:35:00;12.90;99.90
48007;DHT22;33771;48.180;11.400;2023-10-13T05:37:47;12.90;99.90
48007;DHT22;33771;48.180;11.400;2023-10-13T05:40:32;13.00;99.90
48007;DHT22;33771;48.180;11.400;2023-10-13T05:43:17;13.00;99.90
48007;DHT22;33771;48.180;11.400;2023-10-13T05:46:05;13.00;99.90
48007;DHT22;33771;48.180;11.400;2023-10-13T05:49:02;13.00;99.90
48007;DHT22;33771;48.180;11.400;2023-10-13T05:51:33;13.00;99.90
48007;DHT22;33771;48.180;11.400;2023-10-13T05:54:02;13.00;99.90
48007;DHT22;33771;48.180;11.400;2023-10-13T05:56:44;13.10;99.90
48007;DHT22;33771;48.180;11.400;2023-10-13T05:59:29;13.10;99.90
48007;DHT22;33771;48.180;11.400;2023-10-13T06:02:15;13.20;99.90
48007;DHT22;33771;48.180;11.400;2023-10-13T06:05:10;13.20;99.90
48007;DHT22;33771;48.180;11.400;2023-10-13T06:07:55;13.30;99.90
48007;DHT22;33771;48.180;11.400;2023-10-13T06:10:41;13.40;99.90
48007;DHT22;33771;48.180;11.400;2023-10-13T06:13:25;13.50;99.90
48007;DHT22;33771;48.180;11.400;2023-10-13T06:16:12;13.60;99.90
48007;DHT22;33771;48.180;11.400;2023-10-13T06:18:57;13.70;99.90
48007;DHT22;33771;48.180;11.400;2023-10-13T06:21:42;13.80;99.90
48007;DHT22;33771;48.180;11.400;2023-10-13T06:24:26;13.90;99.90
48007;DHT22;33771;48.180;11.400;2023-10-13T06:27:10;14.00;99.90
48007;DHT22;33771;48.180;11.400;2023-10-13T06:29:54;14.10;99.90
48007;DHT22;33771;48.180;11.400;2023-10-13T06:32:21;14.10;99.90
48007;DHT22;33771;48.180;11.400;2023-10-13T06:34:54;14.20;99.90
48007;DHT22;33771;48.180;11.400;2023-10-13T06:37:50;14.30;99.90
48007;DHT22;33771;48.180;11.400;2023-10-13T06:40:16;14.30;99.90
48007;DHT22;33771;48.180;11.400;2023-10-13T06:42:56;14.40;99.90
48007;DHT22;33771;48.180;11.400;2023-10-13T06:45:38;14.50;99.90
48007;DHT22;33771;48.180;11.400;2023-10-13T06:48:05;14.60;99.90
48007;DHT22;33771;48.180;11.400;2023-10-13T06:50:30;14.70;99.90
48007;DHT22;33771;48.180;11.400;2023-10-13T06:53:04;14.80;99.90
48007;DHT22;33771;48.180;11.400;2023-10-13T06:55:30;14.90;99.90
48007;DHT22;33771;48.180;11.400;2023-10-13T06:58:01;15.00;99.90
48007;DHT22;33771;48.180;11.400;2023-10-13T07:00:27;15.10;99.90
48007;DHT22;33771;48.180;11.400;2023-10-13T07:03:00;15.20;99.90
48007;DHT22;33771;48.180;11.400;2023-10-13T07:05:38;15.20;99.90
48007;DHT22;33771;48.180;11.400;2023-10-13T07:08:05;15.20;99.90
48007;DHT22;33771;48.180;11.400;2023-10-13T07:10:32;15.30;99.90
48007;DHT22;33771;48.180;11.400;2023-10-13T07:13:10;15.40;99.90
48007;DHT22;33771;48.180;11.400;2023-10-13T07:15:36;15.50;99.90
48007;DHT22;33771;48.180;11.400;2023-10-13T07:18:11;15.60;99.90
48007;DHT22;33771;48.180;11.400;2023-10-13T07:20:38;15.80;99.90
48007;DHT22;33771;48.180;11.400;2023-10-13T07:23:10;15.90;99.90
48007;DHT22;33771;48.180;11.400;2023-10-13T07:25:37;16.00;99.90
48007;DHT22;33771;48.180;11.400;2023-10-13T07:28:04;16.20;99.90
48007;DHT22;33771;48.180;11.400;2023-10-13T07:30:34;16.40;99.90
48007;DHT22;33771;48.180;11.400;2023-10-13T07:33:13;16.50;99.90
48007;DHT22;33771;48.180;11.400;2023-10-13T07:35:39;16.60;99.90
48007;DHT22;33771;48.180;11.400;2023-10-13T07:38:05;16.80;99.90
48007;DHT22;33771;48.180;11.400;2023-10-13T07:40:33;17.00;99.90
48007;DHT22;33771;48.180;11.400;2023-10-13T07:42:58;17.20;99.90
48007;DHT22;33771;48.180;11.400;2023-10-13T07:45:29;17.30;99.90
48007;DHT22;33771;48.180;11.400;2023-10-13T07:48:10;17.40;99.90
48007;DHT22;33771;48.180;11.400;2023-10-13T07:51:07;17.50;99.90
48007;DHT22;33771;48.180;11.400;2023-10-13T07:53:45;17.70;99.90
48007;DHT22;33771;48.180;11.400;2023-10-13T07:56:14;17.90;99.90
48007;DHT22;33771;48.180;11.400;2023-10-13T07:58:43;18.00;99.90
48007;DHT22;33771;48.180;11.400;2023-10-13T08:01:21;18.20;99.90
48007;DHT22;33771;48.180;11.400;2023-10-13T08:03:47;18.40;99.90
48007;DHT22;33771;48.180;11.400;2023-10-13T08:06:16;18.50;99.90
48007;DHT22;33771;48.180;11.400;2023-10-13T08:08:42;18.80;99.90
48007;DHT22;33771;48.180;11.400;2023-10-13T08:11:12;18.90;99.90
48007;DHT22;33771;48.180;11.400;2023-10-13T08:13:51;19.10;99.90
48007;DHT22;33771;48.180;11.400;2023-10-13T08:16:23;19.30;99.90
48007;DHT22;33771;48.180;11.400;2023-10-13T08:18:49;19.40;99.90
48007;DHT22;33771;48.180;11.400;2023-10-13T08:21:16;19.70;99.90
48007;DHT22;33771;48.180;11.400;2023-10-13T08:23:43;19.80;99.90
48007;DHT22;33771;48.180;11.400;2023-10-13T08:26:31;19.90;99.90
48007;DHT22;33771;48.180;11.400;2023-10-13T08:29:04;20.10;99.90
48007;DHT22;33771;48.180;11.400;2023-10-13T08:31:48;20.30;99.90
48007;DHT22;33771;48.180;11.400;2023-10-13T08:34:35;20.60;99.90
48007;DHT22;33771;48.180;11.400;2023-10-13T08:37:05;20.80;99.90
48007;DHT22;33771;48.180;11.400;2023-10-13T08:39:57;20.80;99.90
48007;DHT22;33771;48.180;11.400;2023-10-13T08:42:43;21.10;99.90
48007;DHT22;33771;48.180;11.400;2023-10-13T08:45:13;21.30;99.90
48007;DHT22;33771;48.180;11.400;2023-10-13T08:47:52;21.40;99.90
48007;DHT22;33771;48.180;11.400;2023-10-13T08:50:51;21.60;99.90
48007;DHT22;33771;48.180;11.400;2023-10-13T08:53:25;21.80;99.90
48007;DHT22;33771;48.180;11.400;2023-10-13T08:55:52;21.90;99.90
48007;DHT22;33771;48.180;11.400;2023-10-13T08:58:27;22.10;99.90
48007;DHT22;33771;48.180;11.400;2023-10-13T09:01:13;22.20;99.90
48007;DHT22;33771;48.180;11.400;2023-10-13T09:03:40;22.40;99.90
48007;DHT22;33771;48.180;11.400;2023-10-13T09:06:12;22.50;99.90
48007;DHT22;33771;48.180;11.400;2023-10-13T09:08:40;22.60;99.90
48007;DHT22;33771;48.180;11.400;2023-10-13T09:11:25;22.80;99.90
48007;DHT22;33771;48.180;11.400;2023-10-13T09:13:52;23.00;99.90
48007;DHT22;33771;48.180;11.400;2023-10-13T09:16:18;23.20;99.90
48007;DHT22;33771;48.180;11.400;2023-10-13T09:19:03;23.20;99.90
48007;DHT22;33771;48.180;11.400;2023-10-13T09:21:41;23.40;99.90
48007;DHT22;33771;48.180;11.400;2023-10-13T09:24:12;23.50;99.90
48007;DHT22;33771;48.180;11.400;2023-10-13T09:26:48;23.50;99.90
48007;DHT22;33771;48.180;11.400;2023-10-13T09:29:19;23.70;99.60
48007;DHT22;33771;48.180;11.400;2023-10-13T09:31:57;23.90;99.60
48007;DHT22;33771;48.180;11.400;2023-10-13T09:34:25;24.00;99.10
48007;DHT22;33771;48.180;11.400;2023-10-13T09:36:57;24.20;98.20
48007;DHT22;33771;48.180;11.400;2023-10-13T09:39:26;24.20;98.40
48007;DHT22;33771;48.180;11.400;2023-10-13T09:42:12;24.20;98.40
48007;DHT22;33771;48.180;11.400;2023-10-13T09:44:38;24.20;98.40
48007;DHT22;33771;48.180;11.400;2023-10-13T09:47:09;24.20;98.80
48007;DHT22;33771;48.180;11.400;2023-10-13T09:49:44;24.50;97.80
48007;DHT22;33771;48.180;11.400;2023-10-13T09:52:14;24.60;98.10
48007;DHT22;33771;48.180;11.400;2023-10-13T09:55:10;24.80;97.90
48007;DHT22;33771;48.180;11.400;2023-10-13T09:57:43;24.80;98.10
48007;DHT22;33771;48.180;11.400;2023-10-13T10:00:13;24.90;96.90
48007;DHT22;33771;48.180;11.400;2023-10-13T10:02:59;25.00;96.70
48007;DHT22;33771;48.180;11.400;2023-10-13T10:05:43;25.10;96.60
48007;DHT22;33771;48.180;11.400;2023-10-13T10:08:23;25.30;96.30
48007;DHT22;33771;48.180;11.400;2023-10-13T10:13:55;25.40;96.10
48007;DHT22;33771;48.180;11.400;2023-10-13T10:19:03;25.70;93.60
48007;DHT22;33771;48.180;11.400;2023-10-13T10:21:37;25.70;94.10
48007;DHT22;33771;48.180;11.400;2023-10-13T10:24:17;26.00;93.30
48007;DHT22;33771;48.180;11.400;2023-10-13T10:26:55;26.00;93.20
48007;DHT22;33771;48.180;11.400;2023-10-13T10:29:21;26.00;93.10
48007;DHT22;33771;48.180;11.400;2023-10-13T10:31:47;26.20;92.30
48007;DHT22;33771;48.180;11.400;2023-10-13T10:34:17;26.20;93.50
48007;DHT22;33771;48.180;11.400;2023-10-13T10:36:54;26.30;91.40
48007;DHT22;33771;48.180;11.400;2023-10-13T10:39:20;26.30;91.40
48007;DHT22;33771;48.180;11.400;2023-10-13T10:41:47;26.20;92.20
48007;DHT22;33771;48.180;11.400;2023-10-13T10:44:18;26.20;92.20
48007;DHT22;33771;48.180;11.400;2023-10-13T10:47:12;26.30;91.70
48007;DHT22;33771;48.180;11.400;2023-10-13T10:49:59;26.50;91.30
48007;DHT22;33771;48.180;11.400;2023-10-13T10:52:32;26.70;91.80
48007;DHT22;33771;48.180;11.400;2023-10-13T10:55:03;26.70;91.30
48007;DHT22;33771;48.180;11.400;2023-10-13T10:57:39;27.00;90.80
48007;DHT22;33771;48.180;11.400;2023-10-13T11:00:20;26.90;91.40
48007;DHT22;33771;48.180;11.400;2023-10-13T11:02:54;27.00;91.60
48007;DHT22;33771;48.180;11.400;2023-10-13T11:05:21;27.20;91.10
48007;DHT22;33771;48.180;11.400;2023-10-13T11:07:46;27.30;90.60
48007;DHT22;33771;48.180;11.400;2023-10-13T11:10:16;27.40;91.20
48007;DHT22;33771;48.180;11.400;2023-10-13T11:13:08;27.50;90.60
48007;DHT22;33771;48.180;11.400;2023-10-13T11:15:45;27.40;89.00
48007;DHT22;33771;48.180;11.400;2023-10-13T11:18:11;27.40;88.50
48007;DHT22;33771;48.180;11.400;2023-10-13T11:20:43;27.80;88.60
48007;DHT22;33771;48.180;11.400;2023-10-13T11:23:13;27.70;89.20
48007;DHT22;33771;48.180;11.400;2023-10-13T11:25:41;27.80;89.50
48007;DHT22;33771;48.180;11.400;2023-10-13T11:28:11;28.00;84.70
48007;DHT22;33771;48.180;11.400;2023-10-13T11:30:45;28.00;87.20
48007;DHT22;33771;48.180;11.400;2023-10-13T11:33:16;28.20;84.40
48007;DHT22;33771;48.180;11.400;2023-10-13T11:35:48;28.20;84.10
48007;DHT22;33771;48.180;11.400;2023-10-13T11:38:15;28.20;79.90
48007;DHT22;33771;48.180;11.400;2023-10-13T11:40:54;28.40;80.50
48007;DHT22;33771;48.180;11.400;2023-10-13T11:46:01;28.70;80.60
48007;DHT22;33771;48.180;11.400;2023-10-13T11:48:41;28.80;80.00
48007;DHT22;33771;48.180;11.400;2023-10-13T11:51:13;28.90;79.30
48007;DHT22;33771;48.180;11.400;2023-10-13T11:53:57;28.80;80.20
48007;DHT22;33771;48.180;11.400;2023-10-13T11:56:24;28.70;77.30
48007;DHT22;33771;48.180;11.400;2023-10-13T11:58:51;28.50;78.70
48007;DHT22;33771;48.180;11.400;2023-10-13T12:01:17;28.80;77.10
48007;DHT22;33771;48.180;11.400;2023-10-13T12:03:48;28.60;77.00
48007;DHT22;33771;48.180;11.400;2023-10-13T12:06:33;28.70;76.80
48007;DHT22;33771;48.180;11.400;2023-10-13T12:11:48;28.70;76.90
48007;DHT22;33771;48.180;11.400;2023-10-13T12:14:16;28.50;77.50
48007;DHT22;33771;48.180;11.400;2023-10-13T12:16:43;28.40;78.60
48007;DHT22;33771;48.180;11.400;2023-10-13T12:19:16;28.30;79.80
48007;DHT22;33771;48.180;11.400;2023-10-13T12:21:46;28.50;78.10
48007;DHT22;33771;48.180;11.400;2023-10-13T12:24:13;28.60;76.80
48007;DHT22;33771;48.180;11.400;2023-10-13T12:26:56;28.60;75.00
48007;DHT22;33771;48.180;11.400;2023-10-13T12:29:26;28.60;76.00
48007;DHT22;33771;48.180;11.400;2023-10-13T12:31:55;28.80;74.90
48007;DHT22;33771;48.180;11.400;2023-10-13T12:34:35;28.70;75.90
48007;DHT22;33771;48.180;11.400;2023-10-13T12:37:20;28.60;76.40
48007;DHT22;33771;48.180;11.400;2023-10-13T12:40:17;28.80;75.40
48007;DHT22;33771;48.180;11.400;2023-10-13T12:43:03;28.80;75.40
48007;DHT22;33771;48.180;11.400;2023-10-13T12:45:49;28.70;76.30
48007;DHT22;33771;48.180;11.400;2023-10-13T12:48:35;28.60;76.80
48007;DHT22;33771;48.180;11.400;2023-10-13T12:51:20;28.60;75.80
48007;DHT22;33771;48.180;11.400;2023-10-13T12:53:51;28.70;76.50
48007;DHT22;33771;48.180;11.400;2023-10-13T12:56:17;28.90;74.30
48007;DHT22;33771;48.180;11.400;2023-10-13T12:58:46;28.80;74.90
48007;DHT22;33771;48.180;11.400;2023-10-13T13:01:18;28.80;74.80
48007;DHT22;33771;48.180;11.400;2023-10-13T13:03:51;28.70;75.10
48007;DHT22;33771;48.180;11.400;2023-10-13T13:06:22;28.70;73.90
48007;DHT22;33771;48.180;11.400;2023-10-13T13:08:56;28.60;75.20
48007;DHT22;33771;48.180;11.400;2023-10-13T13:11:22;28.50;72.50
48007;DHT22;33771;48.180;11.400;2023-10-13T13:13:48;28.40;75.10
48007;DHT22;33771;48.180;11.400;2023-10-13T13:16:14;28.40;74.50
48007;DHT22;33771;48.180;11.400;2023-10-13T13:18:40;28.30;75.40
48007;DHT22;33771;48.180;11.400;2023-10-13T13:21:05;28.40;73.70
48007;DHT22;33771;48.180;11.400;2023-10-13T13:23:37;28.40;74.20
48007;DHT22;33771;48.180;11.400;2023-10-13T13:26:05;28.30;73.90
48007;DHT22;33771;48.180;11.400;2023-10-13T13:28:44;28.20;74.40
48007;DHT22;33771;48.180;11.400;2023-10-13T13:31:10;28.10;75.00
48007;DHT22;33771;48.180;11.400;2023-10-13T13:33:38;28.10;73.90
48007;DHT22;33771;48.180;11.400;2023-10-13T13:36:07;28.00;76.00
48007;DHT22;33771;48.180;11.400;2023-10-13T13:38:39;28.00;76.50
48007;DHT22;33771;48.180;11.400;2023-10-13T13:41:12;27.90;77.30
48007;DHT22;33771;48.180;11.400;2023-10-13T13:43:46;27.90;75.50
48007;DHT22;33771;48.180;11.400;2023-10-13T13:46:18;27.90;75.10
48007;DHT22;33771;48.180;11.400;2023-10-13T13:48:44;27.80;76.10
48007;DHT22;33771;48.180;11.400;2023-10-13T13:51:13;27.80;75.90
48007;DHT22;33771;48.180;11.400;2023-10-13T13:53:45;27.80;76.90
48007;DHT22;33771;48.180;11.400;2023-10-13T13:56:14;27.80;77.70
48007;DHT22;33771;48.180;11.400;2023-10-13T13:58:50;27.70;78.10
48007;DHT22;33771;48.180;11.400;2023-10-13T14:01:16;27.70;77.30
48007;DHT22;33771;48.180;11.400;2023-10-13T14:03:48;27.70;75.10
48007;DHT22;33771;48.180;11.400;2023-10-13T14:06:24;27.80;73.20
48007;DHT22;33771;48.180;11.400;2023-10-13T14:08:56;27.70;75.10
48007;DHT22;33771;48.180;11.400;2023-10-13T14:11:24;27.70;74.20
48007;DHT22;33771;48.180;11.400;2023-10-13T14:14:11;27.50;74.30
48007;DHT22;33771;48.180;11.400;2023-10-13T14:16:52;27.40;75.90
48007;DHT22;33771;48.180;11.400;2023-10-13T14:19:19;27.30;74.50
48007;DHT22;33771;48.180;11.400;2023-10-13T14:21:55;27.30;73.70
48007;DHT22;33771;48.180;11.400;2023-10-13T14:24:21;27.20;75.60
48007;DHT22;33771;48.180;11.400;2023-10-13T14:26:56;27.10;77.10
48007;DHT22;33771;48.180;11.400;2023-10-13T14:29:22;27.10;77.20
48007;DHT22;33771;48.180;11.400;2023-10-13T14:31:52;26.90;78.70
48007;DHT22;33771;48.180;11.400;2023-10-13T14:34:17;26.90;76.40
48007;DHT22;33771;48.180;11.400;2023-10-13T14:36:43;26.90;78.70
48007;DHT22;33771;48.180;11.400;2023-10-13T14:39:14;26.80;79.00
48007;DHT22;33771;48.180;11.400;2023-10-13T14:41:39;26.70;78.10
48007;DHT22;33771;48.180;11.400;2023-10-13T14:44:05;26.60;75.50
48007;DHT22;33771;48.180;11.400;2023-10-13T14:46:32;26.60;79.20
48007;DHT22;33771;48.180;11.400;2023-10-13T14:49:04;26.50;81.40
48007;DHT22;33771;48.180;11.400;2023-10-13T14:51:30;26.40;78.40
48007;DHT22;33771;48.180;11.400;2023-10-13T14:53:57;26.30;80.80
48007;DHT22;33771;48.180;11.400;2023-10-13T14:56:26;26.20;83.10
48007;DHT22;33771;48.180;11.400;2023-10-13T14:58:53;26.00;82.00
48007;DHT22;33771;48.180;11.400;2023-10-13T15:01:21;26.00;83.00
48007;DHT22;33771;48.180;11.400;2023-10-13T15:03:48;25.90;80.30
48007;DHT22;33771;48.180;11.400;2023-10-13T15:06:18;25.80;81.30
48007;DHT22;33771;48.180;11.400;2023-10-13T15:08:47;25.70;83.30
48007;DHT22;33771;48.180;11.400;2023-10-13T15:11:14;25.60;85.50
48007;DHT22;33771;48.180;11.400;2023-10-13T15:13:42;25.50;87.60
48007;DHT22;33771;48.180;11.400;2023-10-13T15:16:15;25.30;87.10
48007;DHT22;33771;48.180;11.400;2023-10-13T15:18:45;25.20;87.20
48007;DHT22;33771;48.180;11.400;2023-10-13T15:21:18;25.10;88.10
48007;DHT22;33771;48.180;11.400;2023-10-13T15:23:44;25.00;87.20
48007;DHT22;33771;48.180;11.400;2023-10-13T15:26:10;24.90;89.20
48007;DHT22;33771;48.180;11.400;2023-10-13T15:28:39;24.70;89.20
48007;DHT22;33771;48.180;11.400;2023-10-13T15:31:16;24.60;90.30
48007;DHT22;33771;48.180;11.400;2023-10-13T15:34:13;24.40;90.30
48007;DHT22;33771;48.180;11.400;2023-10-13T15:36:43;24.20;91.10
48007;DHT22;33771;48.180;11.400;2023-10-13T15:39:11;24.10;91.70
48007;DHT22;33771;48.180;11.400;2023-10-13T15:41:38;23.90;91.00
48007;DHT22;33771;48.180;11.400;2023-10-13T15:44:04;23.70;91.60
48007;DHT22;33771;48.180;11.400;2023-10-13T15:46:35;23.60;91.90
48007;DHT22;33771;48.180;11.400;2023-10-13T15:49:01;23.40;92.50
48007;DHT22;33771;48.180;11.400;2023-10-13T15:51:28;23.30;92.70
48007;DHT22;33771;48.180;11.400;2023-10-13T15:53:55;23.10;93.30
48007;DHT22;33771;48.180;11.400;2023-10-13T15:56:21;23.00;93.60
48007;DHT22;33771;48.180;11.400;2023-10-13T15:58:48;22.80;94.10
48007;DHT22;33771;48.180;11.400;2023-10-13T16:01:15;22.70;94.50
48007;DHT22;33771;48.180;11.400;2023-10-13T16:03:41;22.60;94.60
48007;DHT22;33771;48.180;11.400;2023-10-13T16:06:15;22.40;95.60
48007;DHT22;33771;48.180;11.400;2023-10-13T16:08:41;22.20;96.30